»·PEaware :: ROU1853 CYYZ-KLAS

ROU1853 :: CYYZ-KLAS

FLIGHT INFORMATION

Flight Status: Arrived
Operator: Unknown
More flights by this operator :: More flights under this callsign
Pilot: Jamyson D. (13674)
Aircraft: AIRBUS A321
(A321)
More flights by this aircraft type
Origin: CYYZ Toronto/Pearson Intl
Canada
Destination: KLAS McCarran Intl
United States
More flights between these airports :: More routes between these airports
Route: URSAL3 KASED GEP RAP J158 DDY J107 MLF MPIRE SITEE4
File this flight plan on PilotEdge
Remarks:
Altitude:
(Current/Filed)
34,000ft
Speed:
(Current/Filed)
446kts
Departed: 01-Mar-20 07:14 PM
Arrived: 01-Mar-20 11:43 PM
Distance/Time
Traveled:
1683nm/4:29
Distance/Time
To Go:
Arrived

Flight Plot

Page will automatically refresh every two minutes.


Map Options




Map Legend


Flown Route
Filed Route
Departure Airport
Arrival Airport
Navaid (VOR, NDB)
Fix

Horizontal Profiles

Position Reports

Time Latitude Longitude Heading Altitude Ground
Speed
01-Mar-20 19:12 43.640594 -79.804035 292 5803ft 253kts
01-Mar-20 19:13 43.675005 -79.885214 292 8566ft 245kts
01-Mar-20 19:14 43.712320 -79.966440 301 10516ft 269kts
01-Mar-20 19:15 43.763558 -80.056528 302 11533ft 320kts
01-Mar-20 19:16 43.819070 -80.154477 302 13644ft 330kts
01-Mar-20 19:17 43.863362 -80.267019 292 15395ft 339kts
01-Mar-20 19:18 43.902981 -80.388778 292 16982ft 354kts
01-Mar-20 19:19 43.944121 -80.515601 293 18460ft 366kts
01-Mar-20 19:20 43.986186 -80.645840 293 19971ft 373kts
01-Mar-20 19:21 44.028820 -80.778867 293 21406ft 379kts
01-Mar-20 19:22 44.071866 -80.913591 293 22660ft 386kts
01-Mar-20 19:23 44.115860 -81.051450 293 23796ft 393kts
01-Mar-20 19:24 44.160630 -81.191941 293 24852ft 399kts
01-Mar-20 19:25 44.205329 -81.333826 293 25854ft 403kts
01-Mar-20 19:26 44.250402 -81.477848 292 26725ft 407kts
01-Mar-20 19:27 44.295579 -81.623050 292 27456ft 410kts
01-Mar-20 19:28 44.341121 -81.770626 291 28129ft 413kts
01-Mar-20 19:29 44.386535 -81.918391 291 28710ft 415kts
01-Mar-20 19:30 44.432076 -82.067278 291 29198ft 418kts
01-Mar-20 19:31 44.471380 -82.220076 283 29607ft 419kts
01-Mar-20 19:32 44.491701 -82.380776 279 29966ft 420kts
01-Mar-20 19:33 44.509155 -82.542910 279 30263ft 422kts
01-Mar-20 19:34 44.526428 -82.705572 278 30582ft 423kts
01-Mar-20 19:35 44.543494 -82.868574 277 30960ft 422kts
01-Mar-20 19:36 44.560297 -83.031049 277 31315ft 421kts
01-Mar-20 19:37 44.576851 -83.193352 277 31587ft 420kts
01-Mar-20 19:38 44.593110 -83.355235 277 31818ft 419kts
01-Mar-20 19:39 44.608938 -83.514995 277 32769ft 399kts
01-Mar-20 19:40 44.623855 -83.667847 276 33232ft 393kts
01-Mar-20 19:41 44.638380 -83.819151 276 33679ft 388kts
01-Mar-20 19:42 44.652658 -83.969770 276 33758ft 391kts
01-Mar-20 19:43 44.666828 -84.121317 276 33746ft 392kts
01-Mar-20 19:44 44.680809 -84.273246 276 33730ft 392kts
01-Mar-20 19:45 44.694558 -84.424762 276 33722ft 391kts
01-Mar-20 19:46 44.708131 -84.576493 275 33722ft 391kts
01-Mar-20 19:47 44.721473 -84.728274 275 33721ft 391kts
01-Mar-20 19:48 44.734640 -84.880201 275 33722ft 391kts
01-Mar-20 19:49 44.747584 -85.032032 275 33722ft 391kts
01-Mar-20 19:50 44.760346 -85.184070 275 33721ft 391kts
01-Mar-20 19:51 44.772913 -85.336212 275 33717ft 391kts
01-Mar-20 19:52 44.785261 -85.488294 275 33706ft 392kts
01-Mar-20 19:53 44.797440 -85.640669 275 33702ft 392kts
01-Mar-20 19:54 44.809413 -85.793641 274 33705ft 392kts
01-Mar-20 19:55 44.821142 -85.945767 274 33719ft 392kts
01-Mar-20 19:56 44.832738 -86.098821 274 33726ft 391kts
01-Mar-20 19:57 44.844035 -86.250848 274 33729ft 391kts
01-Mar-20 19:58 44.855151 -86.403043 274 33729ft 390kts
01-Mar-20 19:59 44.866042 -86.555040 274 33729ft 390kts
01-Mar-20 20:00 44.876750 -86.707514 273 33726ft 389kts
01-Mar-20 20:01 44.887226 -86.859369 273 33711ft 389kts
01-Mar-20 20:02 44.897497 -87.011058 273 33695ft 389kts
01-Mar-20 20:03 44.907561 -87.162902 273 33702ft 389kts
01-Mar-20 20:04 44.917445 -87.315240 273 33702ft 389kts
01-Mar-20 20:05 44.927069 -87.466622 273 33702ft 389kts
01-Mar-20 20:06 44.936555 -87.619068 273 33702ft 389kts
01-Mar-20 20:07 44.945815 -87.771403 272 33702ft 389kts
01-Mar-20 20:08 44.954863 -87.923444 272 33702ft 389kts
01-Mar-20 20:09 44.963699 -88.075142 272 33707ft 388kts
01-Mar-20 20:10 44.972317 -88.226925 272 33709ft 388kts
01-Mar-20 20:11 44.980752 -88.378675 272 33709ft 387kts
01-Mar-20 20:12 44.988948 -88.530220 272 33707ft 387kts
01-Mar-20 20:13 44.996828 -88.679562 272 33702ft 387kts
01-Mar-20 20:14 45.004668 -88.831584 271 33707ft 387kts
01-Mar-20 20:15 45.012248 -88.982860 271 33702ft 387kts
01-Mar-20 20:17 45.019667 -89.134888 271 33694ft 387kts
01-Mar-20 20:18 45.026857 -89.286185 271 33693ft 386kts
01-Mar-20 20:19 45.033832 -89.437305 271 33698ft 386kts
01-Mar-20 20:20 45.040636 -89.588870 271 33707ft 386kts
01-Mar-20 20:21 45.047207 -89.740332 271 33710ft 386kts
01-Mar-20 20:22 45.053596 -89.891738 271 33712ft 386kts
01-Mar-20 20:23 45.059733 -90.042437 271 33715ft 384kts
01-Mar-20 20:24 45.065710 -90.193986 271 33720ft 385kts
01-Mar-20 20:25 45.071489 -90.344877 271 33720ft 384kts
01-Mar-20 20:26 45.077050 -90.495613 271 33720ft 384kts
01-Mar-20 20:27 45.082417 -90.646564 271 33720ft 384kts
01-Mar-20 20:28 45.087592 -90.797374 271 33723ft 384kts
01-Mar-20 20:29 45.092563 -90.948631 271 33749ft 384kts
01-Mar-20 20:30 45.097321 -91.099027 271 33773ft 384kts
01-Mar-20 20:31 45.102078 -91.249953 271 33789ft 383kts
01-Mar-20 20:32 45.106728 -91.399903 271 33794ft 383kts
01-Mar-20 20:33 45.110962 -91.550831 271 33798ft 382kts
01-Mar-20 20:34 45.114907 -91.701033 270 33811ft 381kts
01-Mar-20 20:34 45.118048 -91.826066 270 33820ft 381kts
01-Mar-20 20:36 45.122220 -92.001079 270 33822ft 381kts
01-Mar-20 20:37 45.125563 -92.150465 270 33823ft 380kts
01-Mar-20 20:37 45.128203 -92.275320 270 33823ft 380kts
01-Mar-20 20:39 45.131669 -92.449855 270 33829ft 381kts
01-Mar-20 20:40 45.134447 -92.600232 270 33832ft 381kts
01-Mar-20 20:40 45.136587 -92.724905 270 33834ft 381kts
01-Mar-20 20:42 45.139378 -92.899851 270 33850ft 381kts
01-Mar-20 20:42 45.141217 -93.025107 270 33851ft 381kts
01-Mar-20 20:43 45.143236 -93.175125 270 33839ft 381kts
01-Mar-20 20:45 45.144936 -93.350370 268 33838ft 381kts
01-Mar-20 20:45 45.137538 -93.474695 264 33845ft 379kts
01-Mar-20 20:46 45.125885 -93.623138 264 33866ft 379kts
01-Mar-20 20:47 45.113972 -93.771956 263 33876ft 379kts
01-Mar-20 20:48 45.101895 -93.920229 263 33878ft 379kts
01-Mar-20 20:49 45.089619 -94.068432 263 33874ft 379kts
01-Mar-20 20:50 45.077143 -94.216621 263 33874ft 380kts
01-Mar-20 20:51 45.064443 -94.365104 263 33881ft 380kts
01-Mar-20 20:52 45.051595 -94.513140 263 33883ft 380kts
01-Mar-20 20:53 45.038491 -94.662365 262 33883ft 380kts
01-Mar-20 20:54 45.025126 -94.810609 262 33904ft 380kts
01-Mar-20 20:55 45.011587 -94.958847 262 33919ft 381kts
01-Mar-20 20:56 44.997889 -95.107830 263 33939ft 381kts
01-Mar-20 20:57 44.984065 -95.256244 263 33954ft 381kts
01-Mar-20 20:58 44.970175 -95.402631 263 33957ft 370kts
01-Mar-20 20:59 44.956317 -95.546595 262 33931ft 370kts
01-Mar-20 21:00 44.942164 -95.691428 262 33939ft 370kts
01-Mar-20 21:01 44.927910 -95.835847 262 33943ft 370kts
01-Mar-20 21:02 44.913546 -95.979541 262 33959ft 370kts
01-Mar-20 21:03 44.898937 -96.124007 262 33949ft 372kts
01-Mar-20 21:04 44.883585 -96.269074 262 33953ft 372kts
01-Mar-20 21:05 44.868424 -96.413259 262 33966ft 372kts
01-Mar-20 21:06 44.853209 -96.557339 262 33966ft 372kts
01-Mar-20 21:07 44.837771 -96.702121 262 33953ft 373kts
01-Mar-20 21:08 44.822159 -96.846862 262 33975ft 373kts
01-Mar-20 21:09 44.806388 -96.991215 262 33980ft 373kts
01-Mar-20 21:10 44.790415 -97.135557 262 33974ft 374kts
01-Mar-20 21:11 44.774193 -97.280320 262 33964ft 374kts
01-Mar-20 21:12 44.757843 -97.424632 262 33962ft 375kts
01-Mar-20 21:13 44.741241 -97.569452 262 33962ft 375kts
01-Mar-20 21:14 44.724394 -97.714844 261 33955ft 376kts
01-Mar-20 21:15 44.707384 -97.860068 261 33973ft 376kts
01-Mar-20 21:16 44.690200 -98.004964 261 33998ft 376kts
01-Mar-20 21:17 44.672625 -98.151425 261 34006ft 378kts
01-Mar-20 21:18 44.654941 -98.297194 261 34007ft 378kts
01-Mar-20 21:19 44.637032 -98.443222 261 34006ft 378kts
01-Mar-20 21:20 44.619004 -98.588497 261 34007ft 378kts
01-Mar-20 21:21 44.601035 -98.731993 261 34005ft 378kts
01-Mar-20 21:22 44.582584 -98.877892 261 34006ft 379kts
01-Mar-20 21:23 44.563875 -99.023937 261 34018ft 379kts
01-Mar-20 21:24 44.544999 -99.169863 261 34030ft 380kts
01-Mar-20 21:25 44.525923 -99.315749 261 34034ft 380kts
01-Mar-20 21:26 44.506644 -99.461687 261 34035ft 381kts
01-Mar-20 21:27 44.487173 -99.607527 261 34035ft 381kts
01-Mar-20 21:28 44.467382 -99.754610 260 34034ft 382kts
01-Mar-20 21:29 44.447457 -99.901051 260 34036ft 382kts
01-Mar-20 21:30 44.427266 -100.047739 260 34036ft 383kts
01-Mar-20 21:31 44.406897 -100.194348 260 34036ft 383kts
01-Mar-20 21:32 44.386349 -100.340756 260 34036ft 383kts
01-Mar-20 21:33 44.365597 -100.487123 260 34036ft 385kts
01-Mar-20 21:34 44.344443 -100.634990 260 34037ft 393kts
01-Mar-20 21:35 44.322617 -100.786229 260 34036ft 397kts
01-Mar-20 21:36 44.300531 -100.937579 260 34040ft 398kts
01-Mar-20 21:37 44.278281 -101.088576 260 34048ft 398kts
01-Mar-20 21:38 44.255796 -101.239694 260 34054ft 398kts
01-Mar-20 21:39 44.233091 -101.390755 260 34054ft 399kts
01-Mar-20 21:40 44.210215 -101.541660 260 34054ft 399kts
01-Mar-20 21:41 44.187107 -101.692578 259 34052ft 399kts
01-Mar-20 21:42 44.163614 -101.844866 259 34054ft 399kts
01-Mar-20 21:43 44.140074 -101.995807 259 34054ft 399kts
01-Mar-20 21:44 44.116353 -102.146486 259 34054ft 399kts
01-Mar-20 21:45 44.092351 -102.297517 259 34054ft 400kts
01-Mar-20 21:46 44.068105 -102.448747 259 34046ft 401kts
01-Mar-20 21:47 44.043559 -102.600536 259 34038ft 403kts
01-Mar-20 21:48 44.018715 -102.753065 259 34036ft 404kts
01-Mar-20 21:49 43.993631 -102.905617 258 34036ft 403kts
01-Mar-20 21:50 43.964716 -103.055858 253 34037ft 405kts
01-Mar-20 21:51 43.927308 -103.203262 253 34036ft 407kts
01-Mar-20 21:52 43.889161 -103.351805 253 34021ft 407kts
01-Mar-20 21:53 43.850500 -103.500381 253 33993ft 409kts
01-Mar-20 21:54 43.812030 -103.648516 253 33982ft 410kts
01-Mar-20 21:55 43.773187 -103.797751 252 33982ft 410kts
01-Mar-20 21:56 43.734263 -103.946175 252 33982ft 410kts
01-Mar-20 21:57 43.695213 -104.094081 252 34003ft 411kts
01-Mar-20 21:58 43.655738 -104.242612 252 34039ft 411kts
01-Mar-20 21:59 43.616114 -104.390834 252 34052ft 412kts
01-Mar-20 22:00 43.576213 -104.539185 252 34054ft 413kts
01-Mar-20 22:01 43.535991 -104.687860 251 34050ft 413kts
01-Mar-20 22:02 43.495628 -104.836426 251 34046ft 414kts
01-Mar-20 22:03 43.454832 -104.985428 251 34044ft 416kts
01-Mar-20 22:04 43.413718 -105.134577 251 34039ft 417kts
01-Mar-20 22:05 43.372213 -105.284229 251 34036ft 419kts
01-Mar-20 22:06 43.330492 -105.433773 251 34036ft 420kts
01-Mar-20 22:07 43.288343 -105.583858 251 34037ft 420kts
01-Mar-20 22:08 43.245932 -105.734278 251 34036ft 421kts
01-Mar-20 22:09 43.203412 -105.884150 251 34037ft 421kts
01-Mar-20 22:10 43.160893 -106.032992 251 34030ft 423kts
01-Mar-20 22:11 43.117421 -106.184242 251 34031ft 426kts
01-Mar-20 22:12 43.062657 -106.328833 239 34033ft 430kts
01-Mar-20 22:13 42.993181 -106.462078 237 34035ft 431kts
01-Mar-20 22:14 42.922719 -106.595433 237 34035ft 431kts
01-Mar-20 22:15 42.852926 -106.726684 236 34033ft 432kts
01-Mar-20 22:16 42.782183 -106.859381 236 34031ft 433kts
01-Mar-20 22:17 42.711127 -106.992238 236 34028ft 434kts
01-Mar-20 22:18 42.639939 -107.124796 236 34025ft 435kts
01-Mar-20 22:19 42.568441 -107.257304 236 34021ft 435kts
01-Mar-20 22:20 42.496741 -107.389611 236 34019ft 435kts
01-Mar-20 22:21 42.424936 -107.521537 236 34019ft 435kts
01-Mar-20 22:22 42.352954 -107.653211 236 34019ft 435kts
01-Mar-20 22:23 42.280841 -107.784963 236 34019ft 435kts
01-Mar-20 22:24 42.208776 -107.915725 236 34019ft 434kts
01-Mar-20 22:25 42.136436 -108.046333 236 34019ft 434kts
01-Mar-20 22:26 42.063736 -108.177028 236 34021ft 434kts
01-Mar-20 22:27 41.992722 -108.304161 236 34024ft 435kts
01-Mar-20 22:28 41.920058 -108.433675 236 34020ft 434kts
01-Mar-20 22:29 41.847657 -108.561548 235 34020ft 434kts
01-Mar-20 22:30 41.777160 -108.686007 235 34023ft 434kts
01-Mar-20 22:31 41.704128 -108.814954 235 34026ft 435kts
01-Mar-20 22:32 41.630718 -108.943785 235 34026ft 436kts
01-Mar-20 22:33 41.551783 -109.065541 227 34026ft 440kts
01-Mar-20 22:34 41.464613 -109.180524 227 34026ft 440kts
01-Mar-20 22:35 41.377561 -109.295108 227 34026ft 441kts
01-Mar-20 22:36 41.290221 -109.409664 227 34026ft 441kts
01-Mar-20 22:38 41.202757 -109.523954 227 34025ft 440kts
01-Mar-20 22:39 41.115261 -109.637820 227 34019ft 439kts
01-Mar-20 22:40 41.028156 -109.751151 226 34019ft 439kts
01-Mar-20 22:41 40.941754 -109.862857 226 34019ft 437kts
01-Mar-20 22:42 40.856459 -109.972271 226 34018ft 435kts
01-Mar-20 22:43 40.769213 -110.083710 226 34021ft 438kts
01-Mar-20 22:44 40.681939 -110.195047 226 34016ft 436kts
01-Mar-20 22:45 40.594545 -110.306170 226 34005ft 435kts
01-Mar-20 22:46 40.507245 -110.416781 226 34003ft 435kts
01-Mar-20 22:47 40.420053 -110.526827 226 33974ft 435kts
01-Mar-20 22:48 40.332735 -110.636614 226 33932ft 435kts
01-Mar-20 22:49 40.245914 -110.745758 226 33918ft 437kts
01-Mar-20 22:50 40.157859 -110.855777 225 33917ft 438kts
01-Mar-20 22:51 40.069979 -110.965041 225 33925ft 440kts
01-Mar-20 22:52 39.982068 -111.073876 226 33934ft 436kts
01-Mar-20 22:53 39.895138 -111.181162 226 33921ft 432kts
01-Mar-20 22:53 39.823597 -111.268702 225 33992ft 421kts
01-Mar-20 22:55 39.724144 -111.390461 226 34030ft 422kts
01-Mar-20 22:56 39.638603 -111.494716 226 34034ft 422kts
01-Mar-20 22:57 39.553842 -111.597994 226 34025ft 423kts
01-Mar-20 22:58 39.469483 -111.700574 225 34022ft 422kts
01-Mar-20 22:58 39.397895 -111.787335 225 34022ft 422kts
01-Mar-20 23:00 39.297891 -111.907681 225 34021ft 420kts
01-Mar-20 23:00 39.226866 -111.992921 225 34049ft 418kts
01-Mar-20 23:01 39.141878 -112.094661 225 34032ft 421kts
01-Mar-20 23:03 39.042709 -112.212720 225 34045ft 418kts
01-Mar-20 23:03 38.973229 -112.295120 225 34038ft 417kts
01-Mar-20 23:04 38.888985 -112.394544 225 34033ft 415kts
01-Mar-20 23:05 38.803299 -112.495303 225 34042ft 414kts
01-Mar-20 23:06 38.718724 -112.594697 225 34038ft 414kts
01-Mar-20 23:07 38.635610 -112.692131 225 34020ft 413kts
01-Mar-20 23:08 38.551051 -112.791327 224 34033ft 413kts
01-Mar-20 23:09 38.466640 -112.889683 224 34035ft 414kts
01-Mar-20 23:10 38.378161 -112.987634 219 34035ft 428kts
01-Mar-20 23:11 38.275674 -113.064817 209 34029ft 432kts
01-Mar-20 23:12 38.167554 -113.131177 209 34020ft 432kts
01-Mar-20 23:13 38.060115 -113.196925 209 34019ft 432kts
01-Mar-20 23:14 37.953336 -113.261988 209 34019ft 422kts
01-Mar-20 23:15 37.848617 -113.325651 209 33993ft 423kts
01-Mar-20 23:16 37.742697 -113.389762 209 33991ft 423kts
01-Mar-20 23:17 37.636461 -113.454081 209 33991ft 423kts
01-Mar-20 23:18 37.530424 -113.517998 209 33987ft 422kts
01-Mar-20 23:19 37.425681 -113.580631 210 33967ft 421kts
01-Mar-20 23:20 37.320188 -113.643735 210 33555ft 417kts
01-Mar-20 23:21 37.217360 -113.705465 209 32594ft 409kts
01-Mar-20 23:22 37.114380 -113.766891 209 31481ft 410kts
01-Mar-20 23:23 37.011030 -113.828274 208 28477ft 418kts
01-Mar-20 23:24 36.904303 -113.891439 207 24713ft 433kts
01-Mar-20 23:25 36.796137 -113.954868 206 21574ft 425kts
01-Mar-20 23:26 36.692197 -114.015997 206 19134ft 410kts
01-Mar-20 23:27 36.591341 -114.078394 215 16726ft 397kts
01-Mar-20 23:28 36.524147 -114.183711 236 14506ft 383kts
01-Mar-20 23:29 36.468507 -114.293602 235 12425ft 369kts
01-Mar-20 23:30 36.417516 -114.393247 234 11974ft 297kts
01-Mar-20 23:31 36.376590 -114.472693 234 11981ft 277kts
01-Mar-20 23:32 36.334237 -114.554802 235 11213ft 281kts
01-Mar-20 23:33 36.289084 -114.631721 214 9885ft 273kts
01-Mar-20 23:34 36.236297 -114.693704 245 9282ft 278kts
01-Mar-20 23:35 36.204218 -114.780329 245 7788ft 275kts
01-Mar-20 23:36 36.173652 -114.861632 246 6367ft 236kts
01-Mar-20 23:37 36.126506 -114.913765 211 5890ft 236kts
01-Mar-20 23:38 36.077780 -114.958974 241 5371ft 197kts
01-Mar-20 23:39 36.071501 -115.011572 274 4322ft 142kts
01-Mar-20 23:40 36.073473 -115.059773 273 3229ft 140kts
01-Mar-20 23:41 36.073771 -115.106442 271 2427ft 135kts
01-Mar-20 23:42 36.073794 -115.143543 284 2120ft 26kts
01-Mar-20 23:43 36.076790 -115.146546 0 2120ft 16kts
01-Mar-20 23:44 36.078339 -115.144551 94 2120ft 13kts
01-Mar-20 23:45 36.079613 -115.141584 358 2120ft 12kts
01-Mar-20 23:46 36.083597 -115.141139 41 2120ft 16kts
01-Mar-20 23:47 36.084007 -115.136491 150 2120ft 11kts
01-Mar-20 23:48 36.083534 -115.136268 161 2120ft 0kts
01-Mar-20 23:49 36.083534 -115.136268 161 2120ft 0kts
01-Mar-20 23:50 36.083534 -115.136268 161 2120ft 0kts
01-Mar-20 23:51 36.083534 -115.136268 161 2120ft 0kts

Navigation Log

Ident Type
Flight plan parsing failed, navigation log unavailable